sensor_id;sensor_type;location;lat;lon;timestamp;P1;durP1;ratioP1;P2;durP2;ratioP2
10511;SDS011;5304;48.604;2.096;2023-06-22T03:35:50;4.53;;;3.38;;
10511;SDS011;5304;48.604;2.096;2023-06-22T03:38:35;3.92;;;3.40;;
10511;SDS011;5304;48.604;2.096;2023-06-22T03:41:19;4.00;;;3.30;;
10511;SDS011;5304;48.604;2.096;2023-06-22T03:44:04;4.63;;;3.38;;
10511;SDS011;5304;48.604;2.096;2023-06-22T03:46:48;4.07;;;3.28;;
10511;SDS011;5304;48.604;2.096;2023-06-22T03:49:33;5.88;;;3.67;;
10511;SDS011;5304;48.604;2.096;2023-06-22T03:52:18;5.70;;;3.72;;
10511;SDS011;5304;48.604;2.096;2023-06-22T03:55:02;4.50;;;3.60;;
10511;SDS011;5304;48.604;2.096;2023-06-22T03:57:46;3.67;;;3.17;;
10511;SDS011;5304;48.604;2.096;2023-06-22T04:00:31;4.07;;;3.40;;
10511;SDS011;5304;48.604;2.096;2023-06-22T04:03:16;6.50;;;3.35;;
10511;SDS011;5304;48.604;2.096;2023-06-22T04:06:04;5.60;;;3.40;;
10511;SDS011;5304;48.604;2.096;2023-06-22T04:08:48;5.68;;;3.50;;
10511;SDS011;5304;48.604;2.096;2023-06-22T04:11:34;6.60;;;3.80;;
10511;SDS011;5304;48.604;2.096;2023-06-22T04:14:18;4.28;;;3.35;;
10511;SDS011;5304;48.604;2.096;2023-06-22T04:17:02;5.00;;;3.50;;
10511;SDS011;5304;48.604;2.096;2023-06-22T04:19:47;5.03;;;3.50;;
10511;SDS011;5304;48.604;2.096;2023-06-22T04:22:31;6.28;;;3.70;;
10511;SDS011;5304;48.604;2.096;2023-06-22T04:25:15;6.57;;;3.58;;
10511;SDS011;5304;48.604;2.096;2023-06-22T04:28:00;6.13;;;3.60;;
10511;SDS011;5304;48.604;2.096;2023-06-22T04:30:47;8.02;;;4.10;;
10511;SDS011;5304;48.604;2.096;2023-06-22T04:33:31;4.50;;;3.63;;
10511;SDS011;5304;48.604;2.096;2023-06-22T04:36:16;8.10;;;4.22;;
10511;SDS011;5304;48.604;2.096;2023-06-22T04:39:00;6.53;;;4.25;;
10511;SDS011;5304;48.604;2.096;2023-06-22T04:41:44;7.07;;;3.72;;
10511;SDS011;5304;48.604;2.096;2023-06-22T04:44:28;7.35;;;3.67;;
10511;SDS011;5304;48.604;2.096;2023-06-22T04:47:13;7.30;;;3.75;;
10511;SDS011;5304;48.604;2.096;2023-06-22T04:49:57;7.82;;;4.18;;
10511;SDS011;5304;48.604;2.096;2023-06-22T04:52:41;7.65;;;4.10;;
10511;SDS011;5304;48.604;2.096;2023-06-22T04:55:25;10.38;;;4.60;;
10511;SDS011;5304;48.604;2.096;2023-06-22T04:58:10;8.57;;;4.50;;
10511;SDS011;5304;48.604;2.096;2023-06-22T05:00:56;13.73;;;4.25;;
10511;SDS011;5304;48.604;2.096;2023-06-22T05:03:40;6.63;;;4.32;;
10511;SDS011;5304;48.604;2.096;2023-06-22T05:06:25;5.40;;;4.18;;
10511;SDS011;5304;48.604;2.096;2023-06-22T05:09:10;6.85;;;4.47;;
10511;SDS011;5304;48.604;2.096;2023-06-22T05:11:56;7.63;;;4.38;;
10511;SDS011;5304;48.604;2.096;2023-06-22T05:14:40;10.68;;;4.75;;
10511;SDS011;5304;48.604;2.096;2023-06-22T05:17:24;11.07;;;5.65;;
10511;SDS011;5304;48.604;2.096;2023-06-22T05:20:12;6.53;;;4.57;;
10511;SDS011;5304;48.604;2.096;2023-06-22T05:22:56;8.63;;;5.55;;
10511;SDS011;5304;48.604;2.096;2023-06-22T05:25:40;9.07;;;5.40;;
10511;SDS011;5304;48.604;2.096;2023-06-22T05:28:24;9.52;;;5.60;;
10511;SDS011;5304;48.604;2.096;2023-06-22T05:31:09;9.90;;;5.30;;
10511;SDS011;5304;48.604;2.096;2023-06-22T05:33:53;8.80;;;5.50;;
10511;SDS011;5304;48.604;2.096;2023-06-22T05:36:38;15.87;;;6.40;;
10511;SDS011;5304;48.604;2.096;2023-06-22T05:39:22;17.35;;;5.55;;
10511;SDS011;5304;48.604;2.096;2023-06-22T05:42:07;10.43;;;5.70;;
10511;SDS011;5304;48.604;2.096;2023-06-22T05:44:52;8.77;;;5.68;;
10511;SDS011;5304;48.604;2.096;2023-06-22T05:47:37;9.47;;;5.97;;
10511;SDS011;5304;48.604;2.096;2023-06-22T05:50:21;11.83;;;6.03;;
10511;SDS011;5304;48.604;2.096;2023-06-22T05:53:05;10.33;;;5.80;;
10511;SDS011;5304;48.604;2.096;2023-06-22T05:55:50;12.57;;;6.33;;
10511;SDS011;5304;48.604;2.096;2023-06-22T05:58:35;12.67;;;6.57;;
10511;SDS011;5304;48.604;2.096;2023-06-22T06:01:19;11.40;;;6.13;;
10511;SDS011;5304;48.604;2.096;2023-06-22T06:04:04;9.47;;;6.03;;
10511;SDS011;5304;48.604;2.096;2023-06-22T06:06:49;8.83;;;6.33;;
10511;SDS011;5304;48.604;2.096;2023-06-22T06:09:33;11.53;;;6.50;;
10511;SDS011;5304;48.604;2.096;2023-06-22T06:12:17;10.60;;;6.63;;
10511;SDS011;5304;48.604;2.096;2023-06-22T06:15:01;11.10;;;6.60;;
10511;SDS011;5304;48.604;2.096;2023-06-22T06:17:52;10.70;;;6.10;;
10511;SDS011;5304;48.604;2.096;2023-06-22T06:20:37;11.30;;;6.87;;
10511;SDS011;5304;48.604;2.096;2023-06-22T06:23:21;9.80;;;6.20;;
10511;SDS011;5304;48.604;2.096;2023-06-22T06:26:05;9.67;;;7.03;;
10511;SDS011;5304;48.604;2.096;2023-06-22T06:28:50;14.47;;;6.83;;
10511;SDS011;5304;48.604;2.096;2023-06-22T06:31:34;14.37;;;7.37;;
10511;SDS011;5304;48.604;2.096;2023-06-22T06:34:19;11.10;;;7.40;;
10511;SDS011;5304;48.604;2.096;2023-06-22T06:37:03;15.63;;;7.20;;
10511;SDS011;5304;48.604;2.096;2023-06-22T06:39:48;14.03;;;7.20;;
10511;SDS011;5304;48.604;2.096;2023-06-22T06:42:32;14.40;;;7.60;;
10511;SDS011;5304;48.604;2.096;2023-06-22T06:45:17;12.13;;;7.73;;
10511;SDS011;5304;48.604;2.096;2023-06-22T06:48:03;13.20;;;8.00;;
10511;SDS011;5304;48.604;2.096;2023-06-22T06:50:47;13.30;;;8.07;;
10511;SDS011;5304;48.604;2.096;2023-06-22T06:53:31;13.53;;;7.97;;
10511;SDS011;5304;48.604;2.096;2023-06-22T06:56:16;11.70;;;7.63;;
10511;SDS011;5304;48.604;2.096;2023-06-22T06:59:00;13.80;;;8.43;;
10511;SDS011;5304;48.604;2.096;2023-06-22T07:01:44;20.00;;;9.27;;
10511;SDS011;5304;48.604;2.096;2023-06-22T07:04:28;16.87;;;8.87;;
10511;SDS011;5304;48.604;2.096;2023-06-22T07:07:13;13.93;;;9.20;;
10511;SDS011;5304;48.604;2.096;2023-06-22T07:09:57;14.83;;;9.00;;
10511;SDS011;5304;48.604;2.096;2023-06-22T07:12:42;17.27;;;9.77;;
10511;SDS011;5304;48.604;2.096;2023-06-22T07:15:26;16.67;;;10.73;;
10511;SDS011;5304;48.604;2.096;2023-06-22T07:18:10;19.53;;;10.47;;
10511;SDS011;5304;48.604;2.096;2023-06-22T07:20:55;15.73;;;10.37;;
10511;SDS011;5304;48.604;2.096;2023-06-22T07:23:39;17.73;;;10.27;;
10511;SDS011;5304;48.604;2.096;2023-06-22T07:26:23;16.47;;;10.43;;
10511;SDS011;5304;48.604;2.096;2023-06-22T07:29:08;17.97;;;10.67;;
10511;SDS011;5304;48.604;2.096;2023-06-22T07:31:52;17.20;;;11.43;;
10511;SDS011;5304;48.604;2.096;2023-06-22T07:34:36;15.63;;;10.40;;
10511;SDS011;5304;48.604;2.096;2023-06-22T07:37:20;15.43;;;9.90;;
10511;SDS011;5304;48.604;2.096;2023-06-22T07:40:05;15.33;;;10.73;;
10511;SDS011;5304;48.604;2.096;2023-06-22T07:42:50;16.03;;;10.60;;
10511;SDS011;5304;48.604;2.096;2023-06-22T07:45:37;18.30;;;11.43;;
10511;SDS011;5304;48.604;2.096;2023-06-22T07:48:23;16.27;;;10.90;;
10511;SDS011;5304;48.604;2.096;2023-06-22T07:51:07;16.73;;;11.33;;
10511;SDS011;5304;48.604;2.096;2023-06-22T07:53:52;15.83;;;10.63;;
10511;SDS011;5304;48.604;2.096;2023-06-22T07:56:36;19.30;;;11.43;;
10511;SDS011;5304;48.604;2.096;2023-06-22T07:59:21;17.70;;;11.10;;
10511;SDS011;5304;48.604;2.096;2023-06-22T08:02:05;15.73;;;11.23;;
10511;SDS011;5304;48.604;2.096;2023-06-22T08:04:49;20.70;;;11.07;;
10511;SDS011;5304;48.604;2.096;2023-06-22T08:07:35;16.33;;;11.30;;
10511;SDS011;5304;48.604;2.096;2023-06-22T08:10:21;16.63;;;11.53;;
10511;SDS011;5304;48.604;2.096;2023-06-22T08:13:05;15.17;;;11.60;;
10511;SDS011;5304;48.604;2.096;2023-06-22T08:15:49;17.03;;;11.97;;
10511;SDS011;5304;48.604;2.096;2023-06-22T08:18:33;16.70;;;12.07;;
10511;SDS011;5304;48.604;2.096;2023-06-22T08:21:18;18.03;;;11.57;;
10511;SDS011;5304;48.604;2.096;2023-06-22T08:24:02;15.80;;;11.30;;
10511;SDS011;5304;48.604;2.096;2023-06-22T08:26:47;17.50;;;11.77;;
10511;SDS011;5304;48.604;2.096;2023-06-22T08:29:31;17.37;;;12.33;;
10511;SDS011;5304;48.604;2.096;2023-06-22T08:32:15;21.77;;;15.17;;
10511;SDS011;5304;48.604;2.096;2023-06-22T08:35:00;32.80;;;23.03;;
10511;SDS011;5304;48.604;2.096;2023-06-22T08:37:44;29.23;;;22.40;;
10511;SDS011;5304;48.604;2.096;2023-06-22T08:40:35;28.20;;;21.77;;
10511;SDS011;5304;48.604;2.096;2023-06-22T08:43:19;26.73;;;19.93;;
10511;SDS011;5304;48.604;2.096;2023-06-22T08:46:03;23.53;;;18.13;;
10511;SDS011;5304;48.604;2.096;2023-06-22T08:48:48;23.97;;;16.07;;
10511;SDS011;5304;48.604;2.096;2023-06-22T08:51:35;23.97;;;16.93;;
10511;SDS011;5304;48.604;2.096;2023-06-22T08:54:19;23.83;;;15.47;;
10511;SDS011;5304;48.604;2.096;2023-06-22T08:57:03;23.90;;;15.97;;
10511;SDS011;5304;48.604;2.096;2023-06-22T08:59:48;22.83;;;15.70;;
10511;SDS011;5304;48.604;2.096;2023-06-22T09:02:32;24.40;;;16.07;;
10511;SDS011;5304;48.604;2.096;2023-06-22T09:05:17;25.13;;;16.30;;
10511;SDS011;5304;48.604;2.096;2023-06-22T09:08:01;25.63;;;17.70;;
10511;SDS011;5304;48.604;2.096;2023-06-22T09:10:46;25.67;;;17.07;;
10511;SDS011;5304;48.604;2.096;2023-06-22T09:13:30;25.10;;;17.13;;
10511;SDS011;5304;48.604;2.096;2023-06-22T09:16:15;25.93;;;16.40;;
10511;SDS011;5304;48.604;2.096;2023-06-22T09:19:00;21.23;;;16.20;;
10511;SDS011;5304;48.604;2.096;2023-06-22T09:21:44;22.10;;;16.17;;
10511;SDS011;5304;48.604;2.096;2023-06-22T09:24:27;21.03;;;15.77;;
10511;SDS011;5304;48.604;2.096;2023-06-22T09:27:12;24.87;;;16.23;;
10511;SDS011;5304;48.604;2.096;2023-06-22T09:29:56;26.10;;;17.10;;
10511;SDS011;5304;48.604;2.096;2023-06-22T09:32:42;24.53;;;15.80;;
10511;SDS011;5304;48.604;2.096;2023-06-22T09:35:27;26.57;;;15.97;;
10511;SDS011;5304;48.604;2.096;2023-06-22T09:38:11;24.60;;;16.33;;
10511;SDS011;5304;48.604;2.096;2023-06-22T09:40:56;25.57;;;17.00;;
10511;SDS011;5304;48.604;2.096;2023-06-22T09:43:40;24.50;;;15.83;;
10511;SDS011;5304;48.604;2.096;2023-06-22T09:46:24;24.13;;;16.27;;
10511;SDS011;5304;48.604;2.096;2023-06-22T09:49:09;24.33;;;15.32;;
10511;SDS011;5304;48.604;2.096;2023-06-22T09:51:53;21.97;;;14.43;;
10511;SDS011;5304;48.604;2.096;2023-06-22T09:54:37;20.52;;;14.55;;
10511;SDS011;5304;48.604;2.096;2023-06-22T09:57:21;20.38;;;14.63;;
10511;SDS011;5304;48.604;2.096;2023-06-22T10:00:06;26.00;;;16.07;;
10511;SDS011;5304;48.604;2.096;2023-06-22T10:02:57;21.20;;;15.02;;
10511;SDS011;5304;48.604;2.096;2023-06-22T10:05:42;21.00;;;14.48;;
10511;SDS011;5304;48.604;2.096;2023-06-22T10:08:26;19.02;;;14.70;;
10511;SDS011;5304;48.604;2.096;2023-06-22T10:11:11;19.88;;;13.70;;
10511;SDS011;5304;48.604;2.096;2023-06-22T10:13:55;20.70;;;13.85;;
10511;SDS011;5304;48.604;2.096;2023-06-22T10:16:39;20.30;;;14.80;;
10511;SDS011;5304;48.604;2.096;2023-06-22T10:19:24;18.73;;;13.23;;
10511;SDS011;5304;48.604;2.096;2023-06-22T10:22:09;18.25;;;13.00;;
10511;SDS011;5304;48.604;2.096;2023-06-22T10:24:53;19.23;;;13.15;;
10511;SDS011;5304;48.604;2.096;2023-06-22T10:27:37;18.27;;;13.95;;
10511;SDS011;5304;48.604;2.096;2023-06-22T10:30:25;19.30;;;14.15;;
10511;SDS011;5304;48.604;2.096;2023-06-22T10:33:10;19.25;;;13.55;;
10511;SDS011;5304;48.604;2.096;2023-06-22T10:35:55;20.90;;;13.25;;
10511;SDS011;5304;48.604;2.096;2023-06-22T10:38:39;16.15;;;12.10;;
10511;SDS011;5304;48.604;2.096;2023-06-22T10:41:23;17.17;;;11.65;;
10511;SDS011;5304;48.604;2.096;2023-06-22T10:44:07;15.75;;;11.45;;
10511;SDS011;5304;48.604;2.096;2023-06-22T10:46:52;16.65;;;10.82;;
10511;SDS011;5304;48.604;2.096;2023-06-22T10:49:39;14.25;;;10.50;;
10511;SDS011;5304;48.604;2.096;2023-06-22T10:52:24;13.10;;;9.98;;
10511;SDS011;5304;48.604;2.096;2023-06-22T10:55:08;15.52;;;10.25;;
10511;SDS011;5304;48.604;2.096;2023-06-22T10:57:53;14.43;;;10.55;;
10511;SDS011;5304;48.604;2.096;2023-06-22T11:00:37;14.75;;;10.75;;
10511;SDS011;5304;48.604;2.096;2023-06-22T11:03:21;14.48;;;10.10;;
10511;SDS011;5304;48.604;2.096;2023-06-22T11:06:06;13.20;;;9.60;;
10511;SDS011;5304;48.604;2.096;2023-06-22T11:08:50;18.73;;;11.32;;
10511;SDS011;5304;48.604;2.096;2023-06-22T11:11:36;14.10;;;10.50;;
10511;SDS011;5304;48.604;2.096;2023-06-22T11:14:21;14.93;;;10.48;;
10511;SDS011;5304;48.604;2.096;2023-06-22T11:17:06;14.68;;;10.07;;
10511;SDS011;5304;48.604;2.096;2023-06-22T11:19:50;14.15;;;9.75;;
10511;SDS011;5304;48.604;2.096;2023-06-22T11:22:34;13.73;;;10.25;;
10511;SDS011;5304;48.604;2.096;2023-06-22T11:25:19;15.80;;;9.68;;
10511;SDS011;5304;48.604;2.096;2023-06-22T11:28:03;14.32;;;9.52;;
10511;SDS011;5304;48.604;2.096;2023-06-22T11:30:48;13.90;;;10.10;;
10511;SDS011;5304;48.604;2.096;2023-06-22T11:33:33;13.20;;;9.98;;
10511;SDS011;5304;48.604;2.096;2023-06-22T11:36:17;11.95;;;8.85;;
10511;SDS011;5304;48.604;2.096;2023-06-22T11:39:01;11.88;;;9.40;;
10511;SDS011;5304;48.604;2.096;2023-06-22T11:41:46;14.07;;;8.90;;
10511;SDS011;5304;48.604;2.096;2023-06-22T11:44:30;12.13;;;9.30;;
10511;SDS011;5304;48.604;2.096;2023-06-22T11:47:14;11.13;;;8.98;;
10511;SDS011;5304;48.604;2.096;2023-06-22T11:49:58;11.60;;;7.68;;
10511;SDS011;5304;48.604;2.096;2023-06-22T11:52:42;12.43;;;8.23;;
10511;SDS011;5304;48.604;2.096;2023-06-22T11:55:26;13.02;;;9.27;;
10511;SDS011;5304;48.604;2.096;2023-06-22T11:58:11;10.73;;;8.50;;
10511;SDS011;5304;48.604;2.096;2023-06-22T12:00:55;10.88;;;7.65;;
10511;SDS011;5304;48.604;2.096;2023-06-22T12:03:39;10.48;;;6.15;;
10511;SDS011;5304;48.604;2.096;2023-06-22T12:06:24;8.30;;;6.00;;
10511;SDS011;5304;48.604;2.096;2023-06-22T12:09:09;7.43;;;6.05;;
10511;SDS011;5304;48.604;2.096;2023-06-22T12:11:53;7.18;;;5.65;;
10511;SDS011;5304;48.604;2.096;2023-06-22T12:14:37;8.30;;;6.05;;
10511;SDS011;5304;48.604;2.096;2023-06-22T12:17:21;10.50;;;6.43;;
10511;SDS011;5304;48.604;2.096;2023-06-22T12:20:06;10.65;;;7.55;;
10511;SDS011;5304;48.604;2.096;2023-06-22T12:22:51;10.18;;;7.32;;
10511;SDS011;5304;48.604;2.096;2023-06-22T12:25:38;10.38;;;6.95;;
10511;SDS011;5304;48.604;2.096;2023-06-22T12:28:22;6.70;;;5.82;;
10511;SDS011;5304;48.604;2.096;2023-06-22T12:31:06;7.88;;;5.70;;
10511;SDS011;5304;48.604;2.096;2023-06-22T12:33:50;7.00;;;5.63;;
10511;SDS011;5304;48.604;2.096;2023-06-22T12:36:34;9.13;;;5.75;;
10511;SDS011;5304;48.604;2.096;2023-06-22T12:39:19;7.05;;;6.22;;
10511;SDS011;5304;48.604;2.096;2023-06-22T12:42:04;10.02;;;7.03;;
10511;SDS011;5304;48.604;2.096;2023-06-22T12:44:49;13.55;;;7.13;;
10511;SDS011;5304;48.604;2.096;2023-06-22T12:47:33;10.55;;;7.22;;
10511;SDS011;5304;48.604;2.096;2023-06-22T12:50:17;9.48;;;7.18;;
10511;SDS011;5304;48.604;2.096;2023-06-22T12:53:01;13.75;;;7.70;;
10511;SDS011;5304;48.604;2.096;2023-06-22T12:55:47;9.02;;;7.55;;
10511;SDS011;5304;48.604;2.096;2023-06-22T12:58:32;9.02;;;6.90;;
10511;SDS011;5304;48.604;2.096;2023-06-22T13:01:16;8.18;;;6.82;;
10511;SDS011;5304;48.604;2.096;2023-06-22T13:04:02;8.65;;;6.82;;
10511;SDS011;5304;48.604;2.096;2023-06-22T13:06:46;12.50;;;8.00;;
10511;SDS011;5304;48.604;2.096;2023-06-22T13:09:31;11.43;;;7.38;;
10511;SDS011;5304;48.604;2.096;2023-06-22T13:12:16;9.77;;;7.60;;
10511;SDS011;5304;48.604;2.096;2023-06-22T13:15:00;10.48;;;8.20;;
10511;SDS011;5304;48.604;2.096;2023-06-22T13:17:46;12.30;;;8.63;;
10511;SDS011;5304;48.604;2.096;2023-06-22T13:20:31;11.23;;;7.85;;
10511;SDS011;5304;48.604;2.096;2023-06-22T13:23:15;10.32;;;7.50;;
10511;SDS011;5304;48.604;2.096;2023-06-22T13:25:59;11.75;;;7.53;;
10511;SDS011;5304;48.604;2.096;2023-06-22T13:28:44;9.15;;;7.03;;
10511;SDS011;5304;48.604;2.096;2023-06-22T13:31:28;8.00;;;6.43;;
10511;SDS011;5304;48.604;2.096;2023-06-22T13:34:12;8.70;;;6.53;;
10511;SDS011;5304;48.604;2.096;2023-06-22T13:36:56;8.02;;;6.30;;
10511;SDS011;5304;48.604;2.096;2023-06-22T13:39:40;8.88;;;6.68;;
10511;SDS011;5304;48.604;2.096;2023-06-22T13:42:25;11.30;;;7.20;;
10511;SDS011;5304;48.604;2.096;2023-06-22T13:45:09;7.63;;;6.85;;
10511;SDS011;5304;48.604;2.096;2023-06-22T13:47:53;11.20;;;7.82;;
10511;SDS011;5304;48.604;2.096;2023-06-22T13:50:37;9.63;;;7.45;;
10511;SDS011;5304;48.604;2.096;2023-06-22T13:53:22;9.20;;;7.55;;
10511;SDS011;5304;48.604;2.096;2023-06-22T13:56:07;10.95;;;7.80;;
10511;SDS011;5304;48.604;2.096;2023-06-22T13:58:52;9.45;;;7.45;;
10511;SDS011;5304;48.604;2.096;2023-06-22T14:01:36;7.57;;;6.78;;
10511;SDS011;5304;48.604;2.096;2023-06-22T14:04:23;10.73;;;7.07;;
10511;SDS011;5304;48.604;2.096;2023-06-22T14:07:07;10.02;;;6.55;;
10511;SDS011;5304;48.604;2.096;2023-06-22T14:09:52;11.93;;;6.95;;
10511;SDS011;5304;48.604;2.096;2023-06-22T14:12:36;9.05;;;6.57;;
10511;SDS011;5304;48.604;2.096;2023-06-22T14:15:20;10.13;;;6.88;;
10511;SDS011;5304;48.604;2.096;2023-06-22T14:18:04;9.77;;;6.78;;
10511;SDS011;5304;48.604;2.096;2023-06-22T14:20:49;9.57;;;6.88;;
10511;SDS011;5304;48.604;2.096;2023-06-22T14:23:33;9.98;;;6.50;;
10511;SDS011;5304;48.604;2.096;2023-06-22T14:26:17;8.48;;;6.47;;
10511;SDS011;5304;48.604;2.096;2023-06-22T14:29:02;9.88;;;6.63;;
10511;SDS011;5304;48.604;2.096;2023-06-22T14:31:46;9.63;;;6.00;;
10511;SDS011;5304;48.604;2.096;2023-06-22T14:34:31;7.95;;;6.00;;
10511;SDS011;5304;48.604;2.096;2023-06-22T14:37:19;9.07;;;6.75;;
10511;SDS011;5304;48.604;2.096;2023-06-22T14:40:03;11.40;;;6.20;;
10511;SDS011;5304;48.604;2.096;2023-06-22T14:42:48;10.25;;;6.70;;
10511;SDS011;5304;48.604;2.096;2023-06-22T14:45:32;8.88;;;5.80;;
10511;SDS011;5304;48.604;2.096;2023-06-22T14:48:16;6.88;;;5.38;;
10511;SDS011;5304;48.604;2.096;2023-06-22T14:51:01;7.25;;;5.07;;
10511;SDS011;5304;48.604;2.096;2023-06-22T14:53:45;7.68;;;4.90;;
10511;SDS011;5304;48.604;2.096;2023-06-22T14:56:29;6.05;;;4.68;;
10511;SDS011;5304;48.604;2.096;2023-06-22T14:59:13;5.38;;;4.85;;
10511;SDS011;5304;48.604;2.096;2023-06-22T15:01:58;5.80;;;4.60;;
10511;SDS011;5304;48.604;2.096;2023-06-22T15:04:42;11.27;;;5.18;;
10511;SDS011;5304;48.604;2.096;2023-06-22T15:07:27;7.30;;;5.10;;
10511;SDS011;5304;48.604;2.096;2023-06-22T15:10:11;7.68;;;4.80;;
10511;SDS011;5304;48.604;2.096;2023-06-22T15:12:55;8.70;;;5.43;;
10511;SDS011;5304;48.604;2.096;2023-06-22T15:15:39;8.00;;;4.38;;
10511;SDS011;5304;48.604;2.096;2023-06-22T15:18:23;5.93;;;4.80;;
10511;SDS011;5304;48.604;2.096;2023-06-22T15:21:07;6.50;;;4.43;;
10511;SDS011;5304;48.604;2.096;2023-06-22T15:23:52;4.78;;;4.20;;
10511;SDS011;5304;48.604;2.096;2023-06-22T15:26:36;5.22;;;4.20;;
10511;SDS011;5304;48.604;2.096;2023-06-22T15:29:20;6.18;;;4.80;;
10511;SDS011;5304;48.604;2.096;2023-06-22T15:32:04;6.43;;;4.68;;
10511;SDS011;5304;48.604;2.096;2023-06-22T15:34:49;6.35;;;4.28;;
10511;SDS011;5304;48.604;2.096;2023-06-22T15:37:37;6.53;;;4.30;;
10511;SDS011;5304;48.604;2.096;2023-06-22T15:40:21;4.75;;;4.05;;
10511;SDS011;5304;48.604;2.096;2023-06-22T15:43:05;6.35;;;4.45;;
10511;SDS011;5304;48.604;2.096;2023-06-22T15:45:49;6.07;;;4.13;;
10511;SDS011;5304;48.604;2.096;2023-06-22T15:48:34;4.38;;;3.97;;
10511;SDS011;5304;48.604;2.096;2023-06-22T15:51:18;4.50;;;3.78;;
10511;SDS011;5304;48.604;2.096;2023-06-22T15:54:02;8.32;;;3.65;;
10511;SDS011;5304;48.604;2.096;2023-06-22T15:56:46;5.93;;;3.70;;
10511;SDS011;5304;48.604;2.096;2023-06-22T15:59:31;5.07;;;3.78;;
10511;SDS011;5304;48.604;2.096;2023-06-22T16:02:16;4.95;;;3.78;;
10511;SDS011;5304;48.604;2.096;2023-06-22T16:05:00;5.70;;;3.72;;
10511;SDS011;5304;48.604;2.096;2023-06-22T16:07:45;5.20;;;3.42;;
10511;SDS011;5304;48.604;2.096;2023-06-22T16:10:30;5.28;;;3.88;;
10511;SDS011;5304;48.604;2.096;2023-06-22T16:13:14;4.10;;;3.17;;
10511;SDS011;5304;48.604;2.096;2023-06-22T16:15:59;5.10;;;3.95;;
10511;SDS011;5304;48.604;2.096;2023-06-22T16:18:43;6.78;;;3.45;;
10511;SDS011;5304;48.604;2.096;2023-06-22T16:21:27;4.47;;;3.58;;
10511;SDS011;5304;48.604;2.096;2023-06-22T16:24:12;5.20;;;3.45;;
10511;SDS011;5304;48.604;2.096;2023-06-22T16:26:56;8.00;;;3.67;;
10511;SDS011;5304;48.604;2.096;2023-06-22T16:29:40;4.20;;;3.72;;
10511;SDS011;5304;48.604;2.096;2023-06-22T16:32:24;6.45;;;3.40;;
10511;SDS011;5304;48.604;2.096;2023-06-22T16:35:08;3.35;;;3.00;;
10511;SDS011;5304;48.604;2.096;2023-06-22T16:37:53;7.80;;;3.92;;
10511;SDS011;5304;48.604;2.096;2023-06-22T16:40:38;5.30;;;3.75;;
10511;SDS011;5304;48.604;2.096;2023-06-22T16:43:22;4.65;;;3.38;;
10511;SDS011;5304;48.604;2.096;2023-06-22T16:46:06;3.75;;;2.95;;
10511;SDS011;5304;48.604;2.096;2023-06-22T16:48:51;7.85;;;3.58;;
10511;SDS011;5304;48.604;2.096;2023-06-22T16:51:35;4.97;;;3.83;;
10511;SDS011;5304;48.604;2.096;2023-06-22T16:54:20;5.95;;;4.25;;
10511;SDS011;5304;48.604;2.096;2023-06-22T16:57:05;6.85;;;3.70;;
10511;SDS011;5304;48.604;2.096;2023-06-22T16:59:53;6.25;;;3.38;;
10511;SDS011;5304;48.604;2.096;2023-06-22T17:02:50;4.03;;;3.65;;
10511;SDS011;5304;48.604;2.096;2023-06-22T17:05:35;5.18;;;4.00;;
10511;SDS011;5304;48.604;2.096;2023-06-22T17:08:20;4.95;;;3.47;;
10511;SDS011;5304;48.604;2.096;2023-06-22T17:11:07;3.85;;;3.45;;
10511;SDS011;5304;48.604;2.096;2023-06-22T17:13:52;5.88;;;3.72;;
10511;SDS011;5304;48.604;2.096;2023-06-22T17:16:37;4.65;;;3.92;;
10511;SDS011;5304;48.604;2.096;2023-06-22T17:19:25;4.25;;;3.70;;
10511;SDS011;5304;48.604;2.096;2023-06-22T17:22:09;6.10;;;4.03;;
10511;SDS011;5304;48.604;2.096;2023-06-22T17:24:55;4.32;;;3.90;;
10511;SDS011;5304;48.604;2.096;2023-06-22T17:27:39;4.20;;;3.80;;
10511;SDS011;5304;48.604;2.096;2023-06-22T17:30:24;7.95;;;4.10;;
10511;SDS011;5304;48.604;2.096;2023-06-22T17:33:08;6.35;;;3.72;;
10511;SDS011;5304;48.604;2.096;2023-06-22T17:35:55;4.63;;;4.00;;
10511;SDS011;5304;48.604;2.096;2023-06-22T17:38:41;6.45;;;3.70;;
10511;SDS011;5304;48.604;2.096;2023-06-22T17:41:32;7.07;;;3.97;;
10511;SDS011;5304;48.604;2.096;2023-06-22T17:44:21;5.75;;;3.92;;
10511;SDS011;5304;48.604;2.096;2023-06-22T17:47:06;5.88;;;4.00;;
10511;SDS011;5304;48.604;2.096;2023-06-22T17:49:51;5.28;;;4.10;;
10511;SDS011;5304;48.604;2.096;2023-06-22T17:52:35;7.00;;;4.20;;
10511;SDS011;5304;48.604;2.096;2023-06-22T17:55:19;4.50;;;4.00;;
10511;SDS011;5304;48.604;2.096;2023-06-22T17:58:07;8.77;;;4.63;;
10511;SDS011;5304;48.604;2.096;2023-06-22T18:00:51;6.30;;;4.20;;
10511;SDS011;5304;48.604;2.096;2023-06-22T18:03:35;5.93;;;4.15;;
10511;SDS011;5304;48.604;2.096;2023-06-22T18:06:21;6.13;;;4.15;;
10511;SDS011;5304;48.604;2.096;2023-06-22T18:09:10;6.90;;;4.32;;
10511;SDS011;5304;48.604;2.096;2023-06-22T18:11:56;6.57;;;4.57;;
10511;SDS011;5304;48.604;2.096;2023-06-22T18:14:45;9.30;;;4.43;;
10511;SDS011;5304;48.604;2.096;2023-06-22T18:17:30;4.63;;;4.22;;
10511;SDS011;5304;48.604;2.096;2023-06-22T18:20:15;4.43;;;3.65;;
10511;SDS011;5304;48.604;2.096;2023-06-22T18:23:00;4.55;;;4.10;;
10511;SDS011;5304;48.604;2.096;2023-06-22T18:25:46;6.15;;;4.07;;
10511;SDS011;5304;48.604;2.096;2023-06-22T18:28:32;5.03;;;4.00;;
10511;SDS011;5304;48.604;2.096;2023-06-22T18:31:21;5.95;;;4.13;;
10511;SDS011;5304;48.604;2.096;2023-06-22T18:34:09;4.45;;;3.83;;
10511;SDS011;5304;48.604;2.096;2023-06-22T18:36:57;5.40;;;3.63;;
10511;SDS011;5304;48.604;2.096;2023-06-22T18:39:44;5.45;;;4.10;;
10511;SDS011;5304;48.604;2.096;2023-06-22T18:42:30;4.30;;;3.70;;
10511;SDS011;5304;48.604;2.096;2023-06-22T18:45:21;5.97;;;3.78;;
10511;SDS011;5304;48.604;2.096;2023-06-22T18:50:34;5.85;;;4.10;;
10511;SDS011;5304;48.604;2.096;2023-06-22T18:56:11;3.58;;;3.28;;
10511;SDS011;5304;48.604;2.096;2023-06-22T18:58:56;4.43;;;3.92;;
10511;SDS011;5304;48.604;2.096;2023-06-22T19:01:41;5.68;;;3.72;;
10511;SDS011;5304;48.604;2.096;2023-06-22T19:04:25;5.60;;;3.80;;
10511;SDS011;5304;48.604;2.096;2023-06-22T19:07:09;5.40;;;3.97;;
10511;SDS011;5304;48.604;2.096;2023-06-22T19:13:25;5.03;;;3.95;;
10511;SDS011;5304;48.604;2.096;2023-06-22T19:16:11;4.13;;;3.70;;
10511;SDS011;5304;48.604;2.096;2023-06-22T19:18:56;5.40;;;3.55;;
10511;SDS011;5304;48.604;2.096;2023-06-22T19:21:41;4.18;;;3.25;;
10511;SDS011;5304;48.604;2.096;2023-06-22T19:24:29;4.75;;;3.35;;
10511;SDS011;5304;48.604;2.096;2023-06-22T19:27:15;3.78;;;2.95;;
10511;SDS011;5304;48.604;2.096;2023-06-22T19:30:00;5.22;;;3.00;;
10511;SDS011;5304;48.604;2.096;2023-06-22T19:32:46;3.13;;;2.70;;
10511;SDS011;5304;48.604;2.096;2023-06-22T19:35:31;5.22;;;2.70;;
10511;SDS011;5304;48.604;2.096;2023-06-22T19:38:17;2.88;;;2.50;;
10511;SDS011;5304;48.604;2.096;2023-06-22T19:41:01;4.53;;;2.50;;
10511;SDS011;5304;48.604;2.096;2023-06-22T19:43:46;4.15;;;2.40;;
10511;SDS011;5304;48.604;2.096;2023-06-22T19:46:31;3.30;;;2.60;;
10511;SDS011;5304;48.604;2.096;2023-06-22T19:49:16;4.15;;;2.67;;
10511;SDS011;5304;48.604;2.096;2023-06-22T19:52:07;3.50;;;2.22;;
10511;SDS011;5304;48.604;2.096;2023-06-22T19:54:51;3.70;;;2.35;;
10511;SDS011;5304;48.604;2.096;2023-06-22T19:57:38;4.07;;;2.28;;
10511;SDS011;5304;48.604;2.096;2023-06-22T20:00:22;4.78;;;2.42;;
10511;SDS011;5304;48.604;2.096;2023-06-22T20:03:08;3.42;;;2.05;;
10511;SDS011;5304;48.604;2.096;2023-06-22T20:05:54;3.05;;;2.10;;
10511;SDS011;5304;48.604;2.096;2023-06-22T20:08:46;3.55;;;2.38;;
